PWSweather.com
Personal Weather Stations
Station Observations
KCAEXETE14
Park Place, Exeter, CA 93221

Park PlaceExeter, CA 93221

Lat: 36.283487, Lon: -119.152218

Elevation: 380

Station Type: Davis Vantage Vue

http://weather.manyjourneys.com/

High Low Average
Temperature 83.6°F28.7°C 52.9°F11.6°C 66.9°F19.4°C
Dew Point 58.4°F14.7°C 47.0°F8.3°C 52.7°F11.5°C
Winds 1.2 mph 1.9 kmh Calm Calm Calm SWCalm SW
Wind Gusts 3.5 mph5.6 kmh -- 1.0 mph1.6 kmh
Humidity 91% 31% 64%
Pressure 29.85 in1010.8 mb 29.74 in1007.1 mb -
Precipitation 0.00 in0.0 mm - -
Hour Temp Dew Point Humidity Winds Wind Gusts Pressure Precip Precip Rate Daily Precip Total
12:00 AM 58.0°F14.4°C 54.2°F12.3°C 87% Calm Calm -- 29.80 in1009.1 mb - 0.00 in0.0 mm 0.00 in0.0 mm
12:05 AM 58.3°F14.6°C 54.7°F12.6°C 88% Calm Calm -- 29.80 in1009.1 mb - 0.00 in0.0 mm 0.00 in0.0 mm
12:10 AM 58.4°F14.7°C 54.5°F12.5°C 87% Calm Calm -- 29.80 in1009.1 mb - 0.00 in0.0 mm 0.00 in0.0 mm
12:15 AM 58.7°F14.8°C 54.5°F12.5°C 86% Calm Calm -- 29.80 in1009.1 mb - 0.00 in0.0 mm 0.00 in0.0 mm
12:20 AM 58.7°F14.8°C 54.2°F12.3°C 85% Calm Calm -- 29.80 in1009.1 mb - 0.00 in0.0 mm 0.00 in0.0 mm
12:25 AM 58.4°F14.7°C 54.0°F12.2°C 85% Calm Calm -- 29.80 in1009.1 mb - 0.00 in0.0 mm 0.00 in0.0 mm
12:30 AM 58.2°F14.6°C 54.0°F12.2°C 86% Calm Calm -- 29.80 in1009.1 mb - 0.00 in0.0 mm 0.00 in0.0 mm
12:35 AM 58.1°F14.5°C 53.6°F12.0°C 85% Calm Calm -- 29.80 in1009.1 mb - 0.00 in0.0 mm 0.00 in0.0 mm
12:40 AM 58.4°F14.7°C 53.6°F12.0°C 84% Calm Calm -- 29.80 in1009.1 mb - 0.00 in0.0 mm 0.00 in0.0 mm
12:45 AM 58.6°F14.8°C 53.4°F11.9°C 83% Calm Calm -- 29.80 in1009.1 mb - 0.00 in0.0 mm 0.00 in0.0 mm
12:50 AM 58.4°F14.7°C 53.3°F11.8°C 83% Calm Calm -- 29.80 in1009.1 mb - 0.00 in0.0 mm 0.00 in0.0 mm
12:55 AM 58.3°F14.6°C 53.2°F11.8°C 83% Calm Calm -- 29.80 in1009.1 mb - 0.00 in0.0 mm 0.00 in0.0 mm
01:00 AM 58.1°F14.5°C 53.3°F11.8°C 84% Calm Calm -- 29.80 in1009.1 mb - 0.00 in0.0 mm 0.00 in0.0 mm
01:05 AM 58.4°F14.7°C 53.3°F11.8°C 83% Calm Calm -- 29.80 in1009.1 mb - 0.00 in0.0 mm 0.00 in0.0 mm
01:10 AM 58.6°F14.8°C 53.4°F11.9°C 83% Calm Calm -- 29.80 in1009.1 mb - 0.00 in0.0 mm 0.00 in0.0 mm
01:15 AM 58.5°F14.7°C 53.3°F11.8°C 83% Calm Calm -- 29.80 in1009.1 mb - 0.00 in0.0 mm 0.00 in0.0 mm
01:20 AM 58.4°F14.7°C 53.3°F11.8°C 83% Calm Calm -- 29.81 in1009.5 mb - 0.00 in0.0 mm 0.00 in0.0 mm
01:25 AM 58.4°F14.7°C 53.3°F11.8°C 83% Calm Calm -- 29.81 in1009.5 mb - 0.00 in0.0 mm 0.00 in0.0 mm
01:30 AM 58.3°F14.6°C 53.2°F11.8°C 83% Calm Calm -- 29.81 in1009.5 mb - 0.00 in0.0 mm 0.00 in0.0 mm
01:35 AM 58.4°F14.7°C 53.6°F12.0°C 84% Calm Calm -- 29.81 in1009.5 mb - 0.00 in0.0 mm 0.00 in0.0 mm
01:40 AM 58.5°F14.7°C 53.4°F11.9°C 83% Calm Calm -- 29.80 in1009.1 mb - 0.00 in0.0 mm 0.00 in0.0 mm
01:45 AM 58.4°F14.7°C 53.3°F11.8°C 83% Calm Calm -- 29.81 in1009.5 mb - 0.00 in0.0 mm 0.00 in0.0 mm
01:50 AM 58.5°F14.7°C 53.6°F12.0°C 84% Calm Calm -- 29.81 in1009.5 mb - 0.00 in0.0 mm 0.00 in0.0 mm
01:55 AM 58.4°F14.7°C 53.6°F12.0°C 84% Calm Calm -- 29.81 in1009.5 mb - 0.00 in0.0 mm 0.00 in0.0 mm
02:00 AM 58.3°F14.6°C 53.5°F11.9°C 84% Calm Calm -- 29.81 in1009.5 mb - 0.00 in0.0 mm 0.00 in0.0 mm
02:05 AM 58.2°F14.6°C 53.3°F11.8°C 84% Calm Calm -- 29.81 in1009.5 mb - 0.00 in0.0 mm 0.00 in0.0 mm
02:10 AM 57.7°F14.3°C 52.9°F11.6°C 84% Calm Calm -- 29.81 in1009.5 mb - 0.00 in0.0 mm 0.00 in0.0 mm
02:15 AM 57.1°F13.9°C 52.3°F11.3°C 84% Calm Calm -- 29.81 in1009.5 mb - 0.00 in0.0 mm 0.00 in0.0 mm
02:20 AM 56.7°F13.7°C 52.3°F11.3°C 85% Calm Calm -- 29.81 in1009.5 mb - 0.00 in0.0 mm 0.00 in0.0 mm
02:25 AM 56.3°F13.5°C 52.2°F11.2°C 86% Calm Calm -- 29.81 in1009.5 mb - 0.00 in0.0 mm 0.00 in0.0 mm
02:30 AM 56.1°F13.4°C 52.0°F11.1°C 86% Calm Calm -- 29.81 in1009.5 mb - 0.00 in0.0 mm 0.00 in0.0 mm
02:35 AM 55.9°F13.3°C 52.0°F11.1°C 87% Calm Calm -- 29.81 in1009.5 mb - 0.00 in0.0 mm 0.00 in0.0 mm
02:40 AM 55.6°F13.1°C 52.1°F11.2°C 88% Calm Calm -- 29.81 in1009.5 mb - 0.00 in0.0 mm 0.00 in0.0 mm
02:45 AM 55.6°F13.1°C 52.1°F11.2°C 88% Calm Calm -- 29.80 in1009.1 mb - 0.00 in0.0 mm 0.00 in0.0 mm
02:50 AM 55.6°F13.1°C 52.4°F11.3°C 89% Calm Calm -- 29.80 in1009.1 mb - 0.00 in0.0 mm 0.00 in0.0 mm
02:55 AM 55.5°F13.1°C 52.3°F11.3°C 89% Calm Calm -- 29.80 in1009.1 mb - 0.00 in0.0 mm 0.00 in0.0 mm
03:00 AM 55.5°F13.1°C 52.3°F11.3°C 89% Calm Calm -- 29.80 in1009.1 mb - 0.00 in0.0 mm 0.00 in0.0 mm
03:05 AM 55.6°F13.1°C 52.4°F11.3°C 89% Calm Calm -- 29.80 in1009.1 mb - 0.00 in0.0 mm 0.00 in0.0 mm
03:10 AM 55.5°F13.1°C 52.3°F11.3°C 89% Calm Calm -- 29.80 in1009.1 mb - 0.00 in0.0 mm 0.00 in0.0 mm
03:15 AM 55.3°F12.9°C 52.1°F11.2°C 89% Calm Calm -- 29.79 in1008.8 mb - 0.00 in0.0 mm 0.00 in0.0 mm
03:20 AM 55.1°F12.8°C 51.9°F11.1°C 89% Calm Calm -- 29.79 in1008.8 mb - 0.00 in0.0 mm 0.00 in0.0 mm
03:25 AM 54.9°F12.7°C 52.0°F11.1°C 90% Calm Calm -- 29.79 in1008.8 mb - 0.00 in0.0 mm 0.00 in0.0 mm
03:30 AM 54.8°F12.7°C 52.0°F11.1°C 90% Calm Calm -- 29.79 in1008.8 mb - 0.00 in0.0 mm 0.00 in0.0 mm
03:35 AM 55.1°F12.8°C 52.5°F11.4°C 91% Calm Calm -- 29.79 in1008.8 mb - 0.00 in0.0 mm 0.00 in0.0 mm
03:40 AM 55.3°F12.9°C 52.4°F11.3°C 90% Calm Calm -- 29.79 in1008.8 mb - 0.00 in0.0 mm 0.00 in0.0 mm
03:45 AM 55.2°F12.9°C 52.0°F11.1°C 89% Calm Calm -- 29.79 in1008.8 mb - 0.00 in0.0 mm 0.00 in0.0 mm
03:50 AM 55.0°F12.8°C 51.8°F11.0°C 89% Calm Calm -- 29.79 in1008.8 mb - 0.00 in0.0 mm 0.00 in0.0 mm
03:55 AM 54.8°F12.7°C 51.6°F10.9°C 89% Calm Calm -- 29.79 in1008.8 mb - 0.00 in0.0 mm 0.00 in0.0 mm
04:00 AM 54.7°F12.6°C 51.5°F10.8°C 89% Calm Calm -- 29.79 in1008.8 mb - 0.00 in0.0 mm 0.00 in0.0 mm
04:05 AM 54.9°F12.7°C 52.0°F11.1°C 90% Calm Calm -- 29.79 in1008.8 mb - 0.00 in0.0 mm 0.00 in0.0 mm
04:10 AM 54.9°F12.7°C 52.0°F11.1°C 90% Calm Calm -- 29.79 in1008.8 mb - 0.00 in0.0 mm 0.00 in0.0 mm
04:15 AM 54.8°F12.7°C 51.6°F10.9°C 89% Calm Calm -- 29.79 in1008.8 mb - 0.00 in0.0 mm 0.00 in0.0 mm
04:20 AM 54.5°F12.5°C 51.3°F10.7°C 89% Calm Calm -- 29.79 in1008.8 mb - 0.00 in0.0 mm 0.00 in0.0 mm
04:25 AM 54.4°F12.4°C 51.2°F10.7°C 89% Calm Calm -- 29.79 in1008.8 mb - 0.00 in0.0 mm 0.00 in0.0 mm
04:30 AM 54.4°F12.4°C 51.2°F10.7°C 89% Calm Calm -- 29.79 in1008.8 mb - 0.00 in0.0 mm 0.00 in0.0 mm
04:35 AM 54.6°F12.6°C 51.4°F10.8°C 89% Calm Calm -- 29.80 in1009.1 mb - 0.00 in0.0 mm 0.00 in0.0 mm
04:40 AM 54.8°F12.7°C 51.6°F10.9°C 89% Calm Calm -- 29.80 in1009.1 mb - 0.00 in0.0 mm 0.00 in0.0 mm
04:45 AM 54.7°F12.6°C 51.5°F10.8°C 89% Calm Calm -- 29.80 in1009.1 mb - 0.00 in0.0 mm 0.00 in0.0 mm
04:50 AM 54.6°F12.6°C 51.4°F10.8°C 89% Calm Calm -- 29.80 in1009.1 mb - 0.00 in0.0 mm 0.00 in0.0 mm
04:55 AM 54.4°F12.4°C 51.2°F10.7°C 89% Calm Calm -- 29.80 in1009.1 mb - 0.00 in0.0 mm 0.00 in0.0 mm
05:00 AM 54.3°F12.4°C 51.1°F10.6°C 89% Calm Calm -- 29.80 in1009.1 mb - 0.00 in0.0 mm 0.00 in0.0 mm
05:05 AM 54.2°F12.3°C 51.0°F10.6°C 89% Calm Calm -- 29.80 in1009.1 mb - 0.00 in0.0 mm 0.00 in0.0 mm
05:10 AM 54.1°F12.3°C 51.2°F10.7°C 90% Calm Calm -- 29.80 in1009.1 mb - 0.00 in0.0 mm 0.00 in0.0 mm
05:15 AM 54.0°F12.2°C 51.1°F10.6°C 90% Calm Calm -- 29.80 in1009.1 mb - 0.00 in0.0 mm 0.00 in0.0 mm
05:20 AM 54.2°F12.3°C 51.6°F10.9°C 91% Calm Calm -- 29.80 in1009.1 mb - 0.00 in0.0 mm 0.00 in0.0 mm
05:25 AM 54.4°F12.4°C 51.8°F11.0°C 91% Calm Calm -- 29.80 in1009.1 mb - 0.00 in0.0 mm 0.00 in0.0 mm
05:30 AM 54.4°F12.4°C 51.5°F10.8°C 90% Calm Calm -- 29.80 in1009.1 mb - 0.00 in0.0 mm 0.00 in0.0 mm
05:35 AM 54.3°F12.4°C 51.4°F10.8°C 90% Calm Calm -- 29.80 in1009.1 mb - 0.00 in0.0 mm 0.00 in0.0 mm
05:40 AM 54.3°F12.4°C 51.4°F10.8°C 90% Calm Calm -- 29.80 in1009.1 mb - 0.00 in0.0 mm 0.00 in0.0 mm
05:45 AM 54.2°F12.3°C 51.4°F10.8°C 90% Calm Calm -- 29.80 in1009.1 mb - 0.00 in0.0 mm 0.00 in0.0 mm
05:50 AM 54.2°F12.3°C 51.3°F10.7°C 90% Calm Calm -- 29.80 in1009.1 mb - 0.00 in0.0 mm 0.00 in0.0 mm
05:55 AM 54.1°F12.3°C 51.2°F10.7°C 90% Calm Calm -- 29.81 in1009.5 mb - 0.00 in0.0 mm 0.00 in0.0 mm
06:00 AM 53.9°F12.2°C 51.0°F10.6°C 90% Calm Calm -- 29.81 in1009.5 mb - 0.00 in0.0 mm 0.00 in0.0 mm
06:05 AM 54.0°F12.2°C 51.4°F10.8°C 91% Calm Calm -- 29.81 in1009.5 mb - 0.00 in0.0 mm 0.00 in0.0 mm
06:10 AM 53.9°F12.2°C 51.3°F10.7°C 91% Calm Calm -- 29.81 in1009.5 mb - 0.00 in0.0 mm 0.00 in0.0 mm
06:15 AM 54.0°F12.2°C 51.4°F10.8°C 91% Calm Calm -- 29.81 in1009.5 mb - 0.00 in0.0 mm 0.00 in0.0 mm
06:20 AM 54.2°F12.3°C 51.6°F10.9°C 91% Calm Calm -- 29.81 in1009.5 mb - 0.00 in0.0 mm 0.00 in0.0 mm
06:25 AM 54.2°F12.3°C 51.7°F10.9°C 91% Calm Calm -- 29.81 in1009.5 mb - 0.00 in0.0 mm 0.00 in0.0 mm
06:30 AM 54.3°F12.4°C 51.7°F10.9°C 91% Calm Calm -- 29.81 in1009.5 mb - 0.00 in0.0 mm 0.00 in0.0 mm
06:35 AM 54.2°F12.3°C 51.6°F10.9°C 91% Calm Calm -- 29.81 in1009.5 mb - 0.00 in0.0 mm 0.00 in0.0 mm
06:40 AM 54.1°F12.3°C 51.5°F10.8°C 91% Calm Calm -- 29.82 in1009.8 mb - 0.00 in0.0 mm 0.00 in0.0 mm
06:45 AM 54.1°F12.3°C 51.6°F10.9°C 91% Calm Calm -- 29.82 in1009.8 mb - 0.00 in0.0 mm 0.00 in0.0 mm
06:50 AM 53.9°F12.2°C 51.1°F10.6°C 90% Calm Calm -- 29.82 in1009.8 mb - 0.00 in0.0 mm 0.00 in0.0 mm
06:55 AM 53.6°F12.0°C 50.8°F10.4°C 90% Calm Calm -- 29.82 in1009.8 mb - 0.00 in0.0 mm 0.00 in0.0 mm
07:00 AM 53.5°F11.9°C 50.6°F10.3°C 90% Calm Calm -- 29.82 in1009.8 mb - 0.00 in0.0 mm 0.00 in0.0 mm
07:05 AM 53.3°F11.8°C 50.4°F10.2°C 90% Calm Calm -- 29.82 in1009.8 mb - 0.00 in0.0 mm 0.00 in0.0 mm
07:10 AM 53.1°F11.7°C 50.2°F10.1°C 90% Calm Calm -- 29.82 in1009.8 mb - 0.00 in0.0 mm 0.00 in0.0 mm
07:15 AM 52.9°F11.6°C 50.0°F10.0°C 90% Calm Calm -- 29.82 in1009.8 mb - 0.00 in0.0 mm 0.00 in0.0 mm
07:20 AM 53.0°F11.7°C 50.4°F10.2°C 91% Calm Calm -- 29.82 in1009.8 mb - 0.00 in0.0 mm 0.00 in0.0 mm
07:25 AM 53.4°F11.9°C 50.8°F10.4°C 91% Calm Calm -- 29.82 in1009.8 mb - 0.00 in0.0 mm 0.00 in0.0 mm
07:30 AM 53.7°F12.1°C 50.8°F10.4°C 90% Calm Calm -- 29.82 in1009.8 mb - 0.00 in0.0 mm 0.00 in0.0 mm
07:35 AM 53.9°F12.2°C 51.0°F10.6°C 90% Calm Calm -- 29.82 in1009.8 mb - 0.00 in0.0 mm 0.00 in0.0 mm
07:40 AM 54.0°F12.2°C 50.8°F10.4°C 89% Calm Calm -- 29.82 in1009.8 mb - 0.00 in0.0 mm 0.00 in0.0 mm
07:45 AM 54.0°F12.2°C 50.8°F10.4°C 89% Calm Calm -- 29.82 in1009.8 mb - 0.00 in0.0 mm 0.00 in0.0 mm
07:50 AM 54.3°F12.4°C 51.4°F10.8°C 90% Calm Calm -- 29.82 in1009.8 mb - 0.00 in0.0 mm 0.00 in0.0 mm
07:55 AM 54.8°F12.7°C 51.6°F10.9°C 89% Calm Calm -- 29.82 in1009.8 mb - 0.00 in0.0 mm 0.00 in0.0 mm
08:00 AM 55.2°F12.9°C 52.1°F11.2°C 89% Calm Calm -- 29.83 in1010.2 mb - 0.00 in0.0 mm 0.00 in0.0 mm
08:05 AM 55.7°F13.2°C 52.5°F11.4°C 89% Calm Calm -- 29.83 in1010.2 mb - 0.00 in0.0 mm 0.00 in0.0 mm
08:10 AM 56.2°F13.4°C 53.0°F11.7°C 89% Calm Calm -- 29.83 in1010.2 mb - 0.00 in0.0 mm 0.00 in0.0 mm
08:15 AM 57.2°F14.0°C 54.0°F12.2°C 89% Calm Calm -- 29.83 in1010.2 mb - 0.00 in0.0 mm 0.00 in0.0 mm
08:20 AM 58.4°F14.7°C 54.2°F12.3°C 86% Calm Calm -- 29.84 in1010.5 mb - 0.00 in0.0 mm 0.00 in0.0 mm
08:25 AM 59.3°F15.2°C 54.5°F12.5°C 84% Calm Calm -- 29.84 in1010.5 mb - 0.00 in0.0 mm 0.00 in0.0 mm
08:30 AM 60.3°F15.7°C 56.1°F13.4°C 86% Calm Calm -- 29.84 in1010.5 mb - 0.00 in0.0 mm 0.00 in0.0 mm
08:35 AM 61.4°F16.3°C 56.2°F13.4°C 83% Calm Calm -- 29.84 in1010.5 mb - 0.00 in0.0 mm 0.00 in0.0 mm
08:40 AM 62.8°F17.1°C 57.2°F14.0°C 82% Calm Calm -- 29.84 in1010.5 mb - 0.00 in0.0 mm 0.00 in0.0 mm
08:45 AM 64.7°F18.2°C 57.6°F14.2°C 78% Calm Calm -- 29.84 in1010.5 mb - 0.00 in0.0 mm 0.00 in0.0 mm
08:50 AM 65.6°F18.7°C 56.7°F13.7°C 73% Calm Calm -- 29.84 in1010.5 mb - 0.00 in0.0 mm 0.00 in0.0 mm
08:55 AM 66.0°F18.9°C 56.7°F13.7°C 72% Calm Calm 1.2 mph1.9 kmh 29.84 in1010.5 mb - 0.00 in0.0 mm 0.00 in0.0 mm
09:00 AM 66.3°F19.1°C 57.4°F14.1°C 73% Calm Calm 1.2 mph1.9 kmh 29.84 in1010.5 mb - 0.00 in0.0 mm 0.00 in0.0 mm
09:05 AM 66.9°F19.4°C 56.8°F13.8°C 70% Calm Calm 1.2 mph1.9 kmh 29.84 in1010.5 mb - 0.00 in0.0 mm 0.00 in0.0 mm
09:10 AM 67.6°F19.8°C 57.5°F14.2°C 70% Calm Calm 1.2 mph1.9 kmh 29.84 in1010.5 mb - 0.00 in0.0 mm 0.00 in0.0 mm
09:15 AM 68.7°F20.4°C 57.7°F14.3°C 68% Calm Calm 1.2 mph1.9 kmh 29.84 in1010.5 mb - 0.00 in0.0 mm 0.00 in0.0 mm
09:20 AM 69.2°F20.7°C 56.9°F13.8°C 65% Calm Calm 3.5 mph5.6 kmh 29.84 in1010.5 mb - 0.00 in0.0 mm 0.00 in0.0 mm
09:25 AM 69.7°F20.9°C 56.5°F13.6°C 63% Calm Calm 3.5 mph5.6 kmh 29.84 in1010.5 mb - 0.00 in0.0 mm 0.00 in0.0 mm
09:30 AM 70.1°F21.2°C 56.1°F13.4°C 61% Calm Calm 3.5 mph5.6 kmh 29.84 in1010.5 mb - 0.00 in0.0 mm 0.00 in0.0 mm
09:35 AM 70.5°F21.4°C 55.9°F13.3°C 60% 1.2 mph SE1.9 kmh SE 2.3 mph3.7 kmh 29.84 in1010.5 mb - 0.00 in0.0 mm 0.00 in0.0 mm
09:40 AM 70.8°F21.6°C 55.7°F13.2°C 59% Calm Calm 1.2 mph1.9 kmh 29.84 in1010.5 mb - 0.00 in0.0 mm 0.00 in0.0 mm
09:45 AM 71.3°F21.8°C 56.2°F13.4°C 59% Calm Calm 2.3 mph3.7 kmh 29.84 in1010.5 mb - 0.00 in0.0 mm 0.00 in0.0 mm
09:50 AM 71.8°F22.1°C 55.7°F13.2°C 57% Calm Calm -- 29.84 in1010.5 mb - 0.00 in0.0 mm 0.00 in0.0 mm
09:55 AM 72.2°F22.3°C 55.6°F13.1°C 56% 1.2 mph ESE1.9 kmh ESE 2.3 mph3.7 kmh 29.84 in1010.5 mb - 0.00 in0.0 mm 0.00 in0.0 mm
10:00 AM 72.4°F22.4°C 55.9°F13.3°C 56% 1.2 mph SE1.9 kmh SE 3.5 mph5.6 kmh 29.84 in1010.5 mb - 0.00 in0.0 mm 0.00 in0.0 mm
10:05 AM 72.7°F22.6°C 55.6°F13.1°C 55% Calm Calm 2.3 mph3.7 kmh 29.85 in1010.8 mb - 0.00 in0.0 mm 0.00 in0.0 mm
10:10 AM 73.2°F22.9°C 55.6°F13.1°C 54% Calm Calm 1.2 mph1.9 kmh 29.84 in1010.5 mb - 0.00 in0.0 mm 0.00 in0.0 mm
10:15 AM 73.6°F23.1°C 56.0°F13.3°C 54% Calm Calm -- 29.85 in1010.8 mb - 0.00 in0.0 mm 0.00 in0.0 mm
10:20 AM 73.9°F23.3°C 55.7°F13.2°C 53% 1.2 mph SSE1.9 kmh SSE 3.5 mph5.6 kmh 29.84 in1010.5 mb - 0.00 in0.0 mm 0.00 in0.0 mm
10:25 AM 73.9°F23.3°C 55.7°F13.2°C 53% Calm Calm 2.3 mph3.7 kmh 29.84 in1010.5 mb - 0.00 in0.0 mm 0.00 in0.0 mm
10:30 AM 74.3°F23.5°C 56.5°F13.6°C 54% 1.2 mph SSE1.9 kmh SSE 3.5 mph5.6 kmh 29.84 in1010.5 mb - 0.00 in0.0 mm 0.00 in0.0 mm
10:35 AM 74.4°F23.6°C 56.7°F13.7°C 54% Calm Calm 1.2 mph1.9 kmh 29.84 in1010.5 mb - 0.00 in0.0 mm 0.00 in0.0 mm
10:40 AM 74.8°F23.8°C 56.5°F13.6°C 53% 1.2 mph SSE1.9 kmh SSE 3.5 mph5.6 kmh 29.84 in1010.5 mb - 0.00 in0.0 mm 0.00 in0.0 mm
10:45 AM 75.1°F23.9°C 56.3°F13.5°C 52% Calm Calm 2.3 mph3.7 kmh 29.84 in1010.5 mb - 0.00 in0.0 mm 0.00 in0.0 mm
10:50 AM 75.5°F24.2°C 56.1°F13.4°C 51% 1.2 mph SSE1.9 kmh SSE 1.2 mph1.9 kmh 29.84 in1010.5 mb - 0.00 in0.0 mm 0.00 in0.0 mm
10:55 AM 75.6°F24.2°C 56.8°F13.8°C 52% 1.2 mph S1.9 kmh S 2.3 mph3.7 kmh 29.84 in1010.5 mb - 0.00 in0.0 mm 0.00 in0.0 mm
11:00 AM 75.9°F24.4°C 56.5°F13.6°C 51% Calm Calm -- 29.84 in1010.5 mb - 0.00 in0.0 mm 0.00 in0.0 mm
11:05 AM 76.2°F24.6°C 56.2°F13.4°C 50% Calm Calm 2.3 mph3.7 kmh 29.84 in1010.5 mb - 0.00 in0.0 mm 0.00 in0.0 mm
11:10 AM 76.5°F24.7°C 57.5°F14.2°C 52% 1.2 mph SSW1.9 kmh SSW 2.3 mph3.7 kmh 29.84 in1010.5 mb - 0.00 in0.0 mm 0.00 in0.0 mm
11:15 AM 76.8°F24.9°C 56.2°F13.4°C 49% Calm Calm 2.3 mph3.7 kmh 29.84 in1010.5 mb - 0.00 in0.0 mm 0.00 in0.0 mm
11:20 AM 77.2°F25.1°C 57.1°F13.9°C 50% Calm Calm 1.2 mph1.9 kmh 29.84 in1010.5 mb - 0.00 in0.0 mm 0.00 in0.0 mm
11:25 AM 77.5°F25.3°C 56.8°F13.8°C 49% Calm Calm -- 29.83 in1010.2 mb - 0.00 in0.0 mm 0.00 in0.0 mm
11:30 AM 77.8°F25.4°C 57.1°F13.9°C 49% 1.2 mph SSE1.9 kmh SSE 3.5 mph5.6 kmh 29.83 in1010.2 mb - 0.00 in0.0 mm 0.00 in0.0 mm
11:35 AM 77.9°F25.5°C 57.2°F14.0°C 49% 1.2 mph S1.9 kmh S 2.3 mph3.7 kmh 29.83 in1010.2 mb - 0.00 in0.0 mm 0.00 in0.0 mm
11:40 AM 77.9°F25.5°C 56.6°F13.7°C 48% Calm Calm 1.2 mph1.9 kmh 29.83 in1010.2 mb - 0.00 in0.0 mm 0.00 in0.0 mm
11:45 AM 77.9°F25.5°C 56.1°F13.4°C 47% 1.2 mph E1.9 kmh E 1.2 mph1.9 kmh 29.83 in1010.2 mb - 0.00 in0.0 mm 0.00 in0.0 mm
11:50 AM 77.9°F25.5°C 56.0°F13.3°C 47% 1.2 mph SE1.9 kmh SE 1.2 mph1.9 kmh 29.83 in1010.2 mb - 0.00 in0.0 mm 0.00 in0.0 mm
11:55 AM 78.1°F25.6°C 56.8°F13.8°C 48% Calm Calm 1.2 mph1.9 kmh 29.83 in1010.2 mb - 0.00 in0.0 mm 0.00 in0.0 mm
12:00 PM 78.7°F25.9°C 57.9°F14.4°C 49% Calm Calm 2.3 mph3.7 kmh 29.82 in1009.8 mb - 0.00 in0.0 mm 0.00 in0.0 mm
12:05 PM 78.5°F25.8°C 56.6°F13.7°C 47% Calm Calm 1.2 mph1.9 kmh 29.82 in1009.8 mb - 0.00 in0.0 mm 0.00 in0.0 mm
12:10 PM 79.1°F26.2°C 57.1°F13.9°C 47% Calm Calm 2.3 mph3.7 kmh 29.82 in1009.8 mb - 0.00 in0.0 mm 0.00 in0.0 mm
12:15 PM 79.2°F26.2°C 56.6°F13.7°C 46% 1.2 mph W1.9 kmh W 2.3 mph3.7 kmh 29.82 in1009.8 mb - 0.00 in0.0 mm 0.00 in0.0 mm
12:20 PM 79.2°F26.2°C 57.8°F14.3°C 48% Calm Calm 1.2 mph1.9 kmh 29.82 in1009.8 mb - 0.00 in0.0 mm 0.00 in0.0 mm
12:25 PM 79.8°F26.6°C 57.2°F14.0°C 46% 1.2 mph SE1.9 kmh SE 2.3 mph3.7 kmh 29.82 in1009.8 mb - 0.00 in0.0 mm 0.00 in0.0 mm
12:30 PM 80.1°F26.7°C 57.4°F14.1°C 46% Calm Calm 3.5 mph5.6 kmh 29.81 in1009.5 mb - 0.00 in0.0 mm 0.00 in0.0 mm
12:35 PM 80.5°F26.9°C 57.2°F14.0°C 45% Calm Calm 2.3 mph3.7 kmh 29.81 in1009.5 mb - 0.00 in0.0 mm 0.00 in0.0 mm
12:40 PM 80.5°F26.9°C 55.9°F13.3°C 43% Calm Calm -- 29.81 in1009.5 mb - 0.00 in0.0 mm 0.00 in0.0 mm
12:45 PM 80.6°F27.0°C 57.3°F14.1°C 45% Calm Calm 1.2 mph1.9 kmh 29.81 in1009.5 mb - 0.00 in0.0 mm 0.00 in0.0 mm
12:50 PM 81.1°F27.3°C 58.4°F14.7°C 46% Calm Calm 1.2 mph1.9 kmh 29.80 in1009.1 mb - 0.00 in0.0 mm 0.00 in0.0 mm
12:55 PM 81.0°F27.2°C 55.7°F13.2°C 42% 1.2 mph E1.9 kmh E 3.5 mph5.6 kmh 29.80 in1009.1 mb - 0.00 in0.0 mm 0.00 in0.0 mm
01:00 PM 81.2°F27.3°C 57.3°F14.1°C 44% Calm Calm -- 29.80 in1009.1 mb - 0.00 in0.0 mm 0.00 in0.0 mm
01:05 PM 81.6°F27.6°C 56.9°F13.8°C 43% 1.2 mph SSE1.9 kmh SSE 3.5 mph5.6 kmh 29.80 in1009.1 mb - 0.00 in0.0 mm 0.00 in0.0 mm
01:10 PM 81.1°F27.3°C 55.9°F13.3°C 42% 1.2 mph SSE1.9 kmh SSE 2.3 mph3.7 kmh 29.80 in1009.1 mb - 0.00 in0.0 mm 0.00 in0.0 mm
01:15 PM 81.4°F27.4°C 56.1°F13.4°C 42% Calm Calm 2.3 mph3.7 kmh 29.80 in1009.1 mb - 0.00 in0.0 mm 0.00 in0.0 mm
01:20 PM 81.6°F27.6°C 54.2°F12.3°C 39% Calm Calm 1.2 mph1.9 kmh 29.80 in1009.1 mb - 0.00 in0.0 mm 0.00 in0.0 mm
01:25 PM 81.6°F27.6°C 55.6°F13.1°C 41% Calm Calm -- 29.79 in1008.8 mb - 0.00 in0.0 mm 0.00 in0.0 mm
01:30 PM 81.9°F27.7°C 54.5°F12.5°C 39% Calm Calm 1.2 mph1.9 kmh 29.79 in1008.8 mb - 0.00 in0.0 mm 0.00 in0.0 mm
01:35 PM 81.5°F27.5°C 54.2°F12.3°C 39% 1.2 mph NW1.9 kmh NW 2.3 mph3.7 kmh 29.79 in1008.8 mb - 0.00 in0.0 mm 0.00 in0.0 mm
01:40 PM 81.4°F27.4°C 55.4°F13.0°C 41% Calm Calm 2.3 mph3.7 kmh 29.78 in1008.5 mb - 0.00 in0.0 mm 0.00 in0.0 mm
01:45 PM 81.8°F27.7°C 55.8°F13.2°C 41% Calm Calm 1.2 mph1.9 kmh 29.78 in1008.5 mb - 0.00 in0.0 mm 0.00 in0.0 mm
01:50 PM 82.2°F27.9°C 54.0°F12.2°C 38% 1.2 mph NW1.9 kmh NW 2.3 mph3.7 kmh 29.78 in1008.5 mb - 0.00 in0.0 mm 0.00 in0.0 mm
01:55 PM 81.7°F27.6°C 55.7°F13.2°C 41% 1.2 mph S1.9 kmh S 2.3 mph3.7 kmh 29.78 in1008.5 mb - 0.00 in0.0 mm 0.00 in0.0 mm
02:00 PM 82.2°F27.9°C 54.8°F12.7°C 39% 1.2 mph ESE1.9 kmh ESE 1.2 mph1.9 kmh 29.78 in1008.5 mb - 0.00 in0.0 mm 0.00 in0.0 mm
02:05 PM 82.3°F27.9°C 55.6°F13.1°C 40% Calm Calm 1.2 mph1.9 kmh 29.78 in1008.5 mb - 0.00 in0.0 mm 0.00 in0.0 mm
02:10 PM 82.4°F28.0°C 53.5°F11.9°C 37% Calm Calm 1.2 mph1.9 kmh 29.77 in1008.1 mb - 0.00 in0.0 mm 0.00 in0.0 mm
02:15 PM 82.6°F28.1°C 53.7°F12.1°C 37% Calm Calm 1.2 mph1.9 kmh 29.77 in1008.1 mb - 0.00 in0.0 mm 0.00 in0.0 mm
02:20 PM 82.7°F28.2°C 53.8°F12.1°C 37% Calm Calm 2.3 mph3.7 kmh 29.77 in1008.1 mb - 0.00 in0.0 mm 0.00 in0.0 mm
02:25 PM 82.8°F28.2°C 54.6°F12.6°C 38% 1.2 mph SW1.9 kmh SW 2.3 mph3.7 kmh 29.77 in1008.1 mb - 0.00 in0.0 mm 0.00 in0.0 mm
02:30 PM 83.1°F28.4°C 54.1°F12.3°C 37% Calm Calm 1.2 mph1.9 kmh 29.77 in1008.1 mb - 0.00 in0.0 mm 0.00 in0.0 mm
02:35 PM 83.2°F28.4°C 54.3°F12.4°C 37% Calm Calm 1.2 mph1.9 kmh 29.77 in1008.1 mb - 0.00 in0.0 mm 0.00 in0.0 mm
02:40 PM 83.6°F28.7°C 54.5°F12.5°C 37% Calm Calm 1.2 mph1.9 kmh 29.77 in1008.1 mb - 0.00 in0.0 mm 0.00 in0.0 mm
02:45 PM 83.3°F28.5°C 53.6°F12.0°C 36% 1.2 mph NNE1.9 kmh NNE 2.3 mph3.7 kmh 29.76 in1007.8 mb - 0.00 in0.0 mm 0.00 in0.0 mm
02:50 PM 83.2°F28.4°C 53.4°F11.9°C 36% 1.2 mph S1.9 kmh S 2.3 mph3.7 kmh 29.76 in1007.8 mb - 0.00 in0.0 mm 0.00 in0.0 mm
02:55 PM 83.4°F28.6°C 53.6°F12.0°C 36% Calm Calm 1.2 mph1.9 kmh 29.76 in1007.8 mb - 0.00 in0.0 mm 0.00 in0.0 mm
03:00 PM 83.4°F28.6°C 52.9°F11.6°C 35% 1.2 mph NW1.9 kmh NW 2.3 mph3.7 kmh 29.76 in1007.8 mb - 0.00 in0.0 mm 0.00 in0.0 mm
03:05 PM 83.3°F28.5°C 54.3°F12.4°C 37% Calm Calm 2.3 mph3.7 kmh 29.76 in1007.8 mb - 0.00 in0.0 mm 0.00 in0.0 mm
03:10 PM 83.6°F28.7°C 52.3°F11.3°C 34% Calm Calm 2.3 mph3.7 kmh 29.76 in1007.8 mb - 0.00 in0.0 mm 0.00 in0.0 mm
03:15 PM 83.2°F28.4°C 52.7°F11.5°C 35% 1.2 mph SE1.9 kmh SE 2.3 mph3.7 kmh 29.76 in1007.8 mb - 0.00 in0.0 mm 0.00 in0.0 mm
03:20 PM 83.1°F28.4°C 52.6°F11.4°C 35% Calm Calm 1.2 mph1.9 kmh 29.76 in1007.8 mb - 0.00 in0.0 mm 0.00 in0.0 mm
03:25 PM 82.8°F28.2°C 51.6°F10.9°C 34% Calm Calm 1.2 mph1.9 kmh 29.76 in1007.8 mb - 0.00 in0.0 mm 0.00 in0.0 mm
03:30 PM 82.5°F28.1°C 52.1°F11.2°C 35% Calm Calm 2.3 mph3.7 kmh 29.76 in1007.8 mb - 0.00 in0.0 mm 0.00 in0.0 mm
03:35 PM 82.4°F28.0°C 51.2°F10.7°C 34% Calm Calm -- 29.76 in1007.8 mb - 0.00 in0.0 mm 0.00 in0.0 mm
03:40 PM 82.3°F27.9°C 51.1°F10.6°C 34% Calm Calm -- 29.76 in1007.8 mb - 0.00 in0.0 mm 0.00 in0.0 mm
03:45 PM 82.7°F28.2°C 52.2°F11.2°C 35% Calm Calm 1.2 mph1.9 kmh 29.76 in1007.8 mb - 0.00 in0.0 mm 0.00 in0.0 mm
03:50 PM 82.3°F27.9°C 50.3°F10.2°C 33% Calm Calm 1.2 mph1.9 kmh 29.76 in1007.8 mb - 0.00 in0.0 mm 0.00 in0.0 mm
03:55 PM 81.9°F27.7°C 50.8°F10.4°C 34% Calm Calm -- 29.76 in1007.8 mb - 0.00 in0.0 mm 0.00 in0.0 mm
04:00 PM 81.9°F27.7°C 50.8°F10.4°C 34% Calm Calm 1.2 mph1.9 kmh 29.75 in1007.5 mb - 0.00 in0.0 mm 0.00 in0.0 mm
04:05 PM 81.9°F27.7°C 50.8°F10.4°C 34% Calm Calm -- 29.75 in1007.5 mb - 0.00 in0.0 mm 0.00 in0.0 mm
04:10 PM 81.7°F27.6°C 51.4°F10.8°C 35% Calm Calm -- 29.75 in1007.5 mb - 0.00 in0.0 mm 0.00 in0.0 mm
04:15 PM 81.3°F27.4°C 50.3°F10.2°C 34% Calm Calm 1.2 mph1.9 kmh 29.75 in1007.5 mb - 0.00 in0.0 mm 0.00 in0.0 mm
04:20 PM 81.0°F27.2°C 50.0°F10.0°C 34% Calm Calm 1.2 mph1.9 kmh 29.75 in1007.5 mb - 0.00 in0.0 mm 0.00 in0.0 mm
04:25 PM 81.0°F27.2°C 52.3°F11.3°C 37% Calm Calm -- 29.75 in1007.5 mb - 0.00 in0.0 mm 0.00 in0.0 mm
04:30 PM 80.9°F27.2°C 51.4°F10.8°C 36% Calm Calm -- 29.75 in1007.5 mb - 0.00 in0.0 mm 0.00 in0.0 mm
04:35 PM 80.7°F27.1°C 51.3°F10.7°C 36% Calm Calm -- 29.75 in1007.5 mb - 0.00 in0.0 mm 0.00 in0.0 mm
04:40 PM 80.7°F27.1°C 48.9°F9.4°C 33% Calm Calm 1.2 mph1.9 kmh 29.74 in1007.1 mb - 0.00 in0.0 mm 0.00 in0.0 mm
04:45 PM 80.7°F27.1°C 48.9°F9.4°C 33% Calm Calm -- 29.74 in1007.1 mb - 0.00 in0.0 mm 0.00 in0.0 mm
04:50 PM 80.6°F27.0°C 50.4°F10.2°C 35% Calm Calm 1.2 mph1.9 kmh 29.74 in1007.1 mb - 0.00 in0.0 mm 0.00 in0.0 mm
04:55 PM 80.5°F26.9°C 47.1°F8.4°C 31% Calm Calm -- 29.74 in1007.1 mb - 0.00 in0.0 mm 0.00 in0.0 mm
05:00 PM 80.5°F26.9°C 47.1°F8.4°C 31% Calm Calm -- 29.74 in1007.1 mb - 0.00 in0.0 mm 0.00 in0.0 mm
05:05 PM 80.4°F26.9°C 47.0°F8.3°C 31% Calm Calm 1.2 mph1.9 kmh 29.74 in1007.1 mb - 0.00 in0.0 mm 0.00 in0.0 mm
05:10 PM 80.3°F26.8°C 48.6°F9.2°C 33% Calm Calm 1.2 mph1.9 kmh 29.74 in1007.1 mb - 0.00 in0.0 mm 0.00 in0.0 mm
05:15 PM 80.2°F26.8°C 47.7°F8.7°C 32% Calm Calm -- 29.74 in1007.1 mb - 0.00 in0.0 mm 0.00 in0.0 mm
05:20 PM 80.3°F26.8°C 47.7°F8.7°C 32% Calm Calm -- 29.74 in1007.1 mb - 0.00 in0.0 mm 0.00 in0.0 mm
05:25 PM 80.1°F26.7°C 48.4°F9.1°C 33% Calm Calm -- 29.74 in1007.1 mb - 0.00 in0.0 mm 0.00 in0.0 mm
05:30 PM 79.7°F26.5°C 48.9°F9.4°C 34% Calm Calm 1.2 mph1.9 kmh 29.74 in1007.1 mb - 0.00 in0.0 mm 0.00 in0.0 mm
05:35 PM 79.4°F26.3°C 47.8°F8.8°C 33% Calm Calm 1.2 mph1.9 kmh 29.74 in1007.1 mb - 0.00 in0.0 mm 0.00 in0.0 mm
05:40 PM 79.1°F26.2°C 49.1°F9.5°C 35% Calm Calm -- 29.74 in1007.1 mb - 0.00 in0.0 mm 0.00 in0.0 mm
05:45 PM 78.8°F26.0°C 47.2°F8.4°C 33% Calm Calm -- 29.74 in1007.1 mb - 0.00 in0.0 mm 0.00 in0.0 mm
05:50 PM 78.3°F25.7°C 47.7°F8.7°C 34% Calm Calm 1.2 mph1.9 kmh 29.74 in1007.1 mb - 0.00 in0.0 mm 0.00 in0.0 mm
05:55 PM 77.7°F25.4°C 47.1°F8.4°C 34% Calm Calm -- 29.74 in1007.1 mb - 0.00 in0.0 mm 0.00 in0.0 mm
06:00 PM 77.2°F25.1°C 47.5°F8.6°C 35% Calm Calm -- 29.74 in1007.1 mb - 0.00 in0.0 mm 0.00 in0.0 mm
06:05 PM 76.7°F24.8°C 47.7°F8.7°C 36% Calm Calm -- 29.74 in1007.1 mb - 0.00 in0.0 mm 0.00 in0.0 mm
06:10 PM 76.2°F24.6°C 48.0°F8.9°C 37% Calm Calm -- 29.74 in1007.1 mb - 0.00 in0.0 mm 0.00 in0.0 mm
06:15 PM 75.6°F24.2°C 48.2°F9.0°C 38% Calm Calm -- 29.74 in1007.1 mb - 0.00 in0.0 mm 0.00 in0.0 mm
06:20 PM 74.9°F23.8°C 48.9°F9.4°C 40% Calm Calm -- 29.74 in1007.1 mb - 0.00 in0.0 mm 0.00 in0.0 mm
06:25 PM 74.0°F23.3°C 49.5°F9.7°C 42% Calm Calm -- 29.75 in1007.5 mb - 0.00 in0.0 mm 0.00 in0.0 mm
06:30 PM 73.1°F22.8°C 49.3°F9.6°C 43% Calm Calm -- 29.75 in1007.5 mb - 0.00 in0.0 mm 0.00 in0.0 mm
06:35 PM 72.2°F22.3°C 50.2°F10.1°C 46% Calm Calm -- 29.75 in1007.5 mb - 0.00 in0.0 mm 0.00 in0.0 mm
06:40 PM 71.5°F21.9°C 49.6°F9.8°C 46% Calm Calm -- 29.75 in1007.5 mb - 0.00 in0.0 mm 0.00 in0.0 mm
06:45 PM 71.1°F21.7°C 50.9°F10.5°C 49% Calm Calm -- 29.75 in1007.5 mb - 0.00 in0.0 mm 0.00 in0.0 mm
06:50 PM 70.5°F21.4°C 50.9°F10.5°C 50% Calm Calm -- 29.75 in1007.5 mb - 0.00 in0.0 mm 0.00 in0.0 mm
06:55 PM 69.8°F21.0°C 50.3°F10.2°C 50% Calm Calm -- 29.75 in1007.5 mb - 0.00 in0.0 mm 0.00 in0.0 mm
07:00 PM 69.3°F20.7°C 50.9°F10.5°C 52% Calm Calm -- 29.75 in1007.5 mb - 0.00 in0.0 mm 0.00 in0.0 mm
07:05 PM 68.8°F20.4°C 50.9°F10.5°C 53% Calm Calm -- 29.75 in1007.5 mb - 0.00 in0.0 mm 0.00 in0.0 mm
07:10 PM 68.3°F20.2°C 51.0°F10.6°C 54% Calm Calm -- 29.75 in1007.5 mb - 0.00 in0.0 mm 0.00 in0.0 mm
07:15 PM 67.8°F19.9°C 50.5°F10.3°C 54% Calm Calm -- 29.76 in1007.8 mb - 0.00 in0.0 mm 0.00 in0.0 mm
07:20 PM 67.5°F19.7°C 50.8°F10.4°C 55% Calm Calm -- 29.76 in1007.8 mb - 0.00 in0.0 mm 0.00 in0.0 mm
07:25 PM 67.1°F19.5°C 51.4°F10.8°C 57% Calm Calm -- 29.76 in1007.8 mb - 0.00 in0.0 mm 0.00 in0.0 mm
07:30 PM 66.6°F19.2°C 50.4°F10.2°C 56% Calm Calm -- 29.76 in1007.8 mb - 0.00 in0.0 mm 0.00 in0.0 mm
07:35 PM 66.5°F19.2°C 52.2°F11.2°C 60% Calm Calm -- 29.76 in1007.8 mb - 0.00 in0.0 mm 0.00 in0.0 mm
07:40 PM 66.3°F19.1°C 52.9°F11.6°C 62% Calm Calm -- 29.76 in1007.8 mb - 0.00 in0.0 mm 0.00 in0.0 mm
07:45 PM 66.0°F18.9°C 52.6°F11.4°C 62% Calm Calm -- 29.76 in1007.8 mb - 0.00 in0.0 mm 0.00 in0.0 mm
07:50 PM 65.8°F18.8°C 53.3°F11.8°C 64% Calm Calm -- 29.77 in1008.1 mb - 0.00 in0.0 mm 0.00 in0.0 mm
07:55 PM 65.5°F18.6°C 52.1°F11.2°C 62% Calm Calm -- 29.77 in1008.1 mb - 0.00 in0.0 mm 0.00 in0.0 mm
08:00 PM 65.2°F18.4°C 51.9°F11.1°C 62% Calm Calm -- 29.77 in1008.1 mb - 0.00 in0.0 mm 0.00 in0.0 mm
08:05 PM 65.0°F18.3°C 52.5°F11.4°C 64% Calm Calm -- 29.77 in1008.1 mb - 0.00 in0.0 mm 0.00 in0.0 mm
08:10 PM 64.8°F18.2°C 52.3°F11.3°C 64% Calm Calm -- 29.77 in1008.1 mb - 0.00 in0.0 mm 0.00 in0.0 mm
08:15 PM 64.8°F18.2°C 51.9°F11.1°C 63% Calm Calm -- 29.77 in1008.1 mb - 0.00 in0.0 mm 0.00 in0.0 mm
08:20 PM 65.0°F18.3°C 51.2°F10.7°C 61% Calm Calm -- 29.77 in1008.1 mb - 0.00 in0.0 mm 0.00 in0.0 mm
08:25 PM 65.1°F18.4°C 51.8°F11.0°C 62% Calm Calm -- 29.77 in1008.1 mb - 0.00 in0.0 mm 0.00 in0.0 mm
08:30 PM 65.1°F18.4°C 51.8°F11.0°C 62% Calm Calm -- 29.77 in1008.1 mb - 0.00 in0.0 mm 0.00 in0.0 mm
08:35 PM 65.2°F18.4°C 51.0°F10.6°C 60% Calm Calm -- 29.77 in1008.1 mb - 0.00 in0.0 mm 0.00 in0.0 mm
08:40 PM 65.2°F18.4°C 51.4°F10.8°C 61% Calm Calm -- 29.77 in1008.1 mb - 0.00 in0.0 mm 0.00 in0.0 mm
08:45 PM 65.3°F18.5°C 51.9°F11.1°C 62% Calm Calm -- 29.77 in1008.1 mb - 0.00 in0.0 mm 0.00 in0.0 mm
08:50 PM 65.0°F18.3°C 52.1°F11.2°C 63% Calm Calm -- 29.77 in1008.1 mb - 0.00 in0.0 mm 0.00 in0.0 mm
08:55 PM 64.7°F18.2°C 52.2°F11.2°C 64% Calm Calm -- 29.77 in1008.1 mb - 0.00 in0.0 mm 0.00 in0.0 mm
09:00 PM 64.5°F18.1°C 51.6°F10.9°C 63% Calm Calm -- 29.77 in1008.1 mb - 0.00 in0.0 mm 0.00 in0.0 mm
09:05 PM 64.5°F18.1°C 51.6°F10.9°C 63% Calm Calm -- 29.77 in1008.1 mb - 0.00 in0.0 mm 0.00 in0.0 mm
09:10 PM 64.5°F18.1°C 52.0°F11.1°C 64% Calm Calm -- 29.77 in1008.1 mb - 0.00 in0.0 mm 0.00 in0.0 mm
09:15 PM 64.4°F18.0°C 51.9°F11.1°C 64% Calm Calm -- 29.77 in1008.1 mb - 0.00 in0.0 mm 0.00 in0.0 mm
09:20 PM 64.2°F17.9°C 51.3°F10.7°C 63% Calm Calm -- 29.78 in1008.5 mb - 0.00 in0.0 mm 0.00 in0.0 mm
09:25 PM 64.3°F17.9°C 52.3°F11.3°C 65% Calm Calm -- 29.78 in1008.5 mb - 0.00 in0.0 mm 0.00 in0.0 mm
09:30 PM 64.2°F17.9°C 52.6°F11.4°C 66% Calm Calm -- 29.78 in1008.5 mb - 0.00 in0.0 mm 0.00 in0.0 mm
09:35 PM 63.9°F17.7°C 52.3°F11.3°C 66% Calm Calm -- 29.78 in1008.5 mb - 0.00 in0.0 mm 0.00 in0.0 mm
09:40 PM 63.8°F17.7°C 52.6°F11.4°C 67% Calm Calm -- 29.78 in1008.5 mb - 0.00 in0.0 mm 0.00 in0.0 mm
09:45 PM 63.7°F17.6°C 53.7°F12.1°C 70% Calm Calm -- 29.78 in1008.5 mb - 0.00 in0.0 mm 0.00 in0.0 mm
09:50 PM 62.9°F17.2°C 53.3°F11.8°C 71% Calm Calm -- 29.79 in1008.8 mb - 0.00 in0.0 mm 0.00 in0.0 mm
09:55 PM 62.1°F16.7°C 52.9°F11.6°C 72% Calm Calm -- 29.79 in1008.8 mb - 0.00 in0.0 mm 0.00 in0.0 mm
10:00 PM 61.7°F16.5°C 52.6°F11.4°C 72% Calm Calm -- 29.79 in1008.8 mb - 0.00 in0.0 mm 0.00 in0.0 mm
10:05 PM 61.4°F16.3°C 52.7°F11.5°C 73% Calm Calm -- 29.79 in1008.8 mb - 0.00 in0.0 mm 0.00 in0.0 mm
10:10 PM 61.3°F16.3°C 52.9°F11.6°C 74% Calm Calm -- 29.79 in1008.8 mb - 0.00 in0.0 mm 0.00 in0.0 mm
10:15 PM 61.1°F16.2°C 53.1°F11.7°C 75% Calm Calm -- 29.79 in1008.8 mb - 0.00 in0.0 mm 0.00 in0.0 mm
10:20 PM 60.8°F16.0°C 53.2°F11.8°C 76% Calm Calm -- 29.80 in1009.1 mb - 0.00 in0.0 mm 0.00 in0.0 mm
10:25 PM 60.5°F15.8°C 52.5°F11.4°C 75% Calm Calm -- 29.80 in1009.1 mb - 0.00 in0.0 mm 0.00 in0.0 mm
10:30 PM 60.4°F15.8°C 52.8°F11.6°C 76% Calm Calm -- 29.79 in1008.8 mb - 0.00 in0.0 mm 0.00 in0.0 mm
10:35 PM 60.3°F15.7°C 52.7°F11.5°C 76% Calm Calm -- 29.80 in1009.1 mb - 0.00 in0.0 mm 0.00 in0.0 mm
10:40 PM 60.4°F15.8°C 53.1°F11.7°C 77% Calm Calm -- 29.80 in1009.1 mb - 0.00 in0.0 mm 0.00 in0.0 mm
10:45 PM 60.5°F15.8°C 52.2°F11.2°C 74% Calm Calm -- 29.80 in1009.1 mb - 0.00 in0.0 mm 0.00 in0.0 mm
10:50 PM 60.5°F15.8°C 52.2°F11.2°C 74% Calm Calm -- 29.80 in1009.1 mb - 0.00 in0.0 mm 0.00 in0.0 mm
10:55 PM 60.3°F15.7°C 52.0°F11.1°C 74% Calm Calm -- 29.80 in1009.1 mb - 0.00 in0.0 mm 0.00 in0.0 mm
11:00 PM 60.2°F15.7°C 52.2°F11.2°C 75% Calm Calm -- 29.80 in1009.1 mb - 0.00 in0.0 mm 0.00 in0.0 mm
11:05 PM 60.1°F15.6°C 51.8°F11.0°C 74% Calm Calm -- 29.81 in1009.5 mb - 0.00 in0.0 mm 0.00 in0.0 mm
11:10 PM 60.2°F15.7°C 51.5°F10.8°C 73% Calm Calm -- 29.80 in1009.1 mb - 0.00 in0.0 mm 0.00 in0.0 mm
11:15 PM 60.4°F15.8°C 51.3°F10.7°C 72% Calm Calm -- 29.81 in1009.5 mb - 0.00 in0.0 mm 0.00 in0.0 mm
11:20 PM 60.4°F15.8°C 51.3°F10.7°C 72% Calm Calm -- 29.81 in1009.5 mb - 0.00 in0.0 mm 0.00 in0.0 mm
11:25 PM 60.7°F15.9°C 51.6°F10.9°C 72% Calm Calm -- 29.81 in1009.5 mb - 0.00 in0.0 mm 0.00 in0.0 mm
11:30 PM 60.7°F15.9°C 51.2°F10.7°C 71% Calm Calm -- 29.81 in1009.5 mb - 0.00 in0.0 mm 0.00 in0.0 mm
11:35 PM 61.0°F16.1°C 50.7°F10.4°C 69% Calm Calm -- 29.81 in1009.5 mb - 0.00 in0.0 mm 0.00 in0.0 mm
11:40 PM 61.3°F16.3°C 50.6°F10.3°C 68% Calm Calm -- 29.81 in1009.5 mb - 0.00 in0.0 mm 0.00 in0.0 mm
11:45 PM 61.3°F16.3°C 51.0°F10.6°C 69% Calm Calm -- 29.81 in1009.5 mb - 0.00 in0.0 mm 0.00 in0.0 mm
11:50 PM 60.8°F16.0°C 51.4°F10.8°C 71% Calm Calm -- 29.81 in1009.5 mb - 0.00 in0.0 mm 0.00 in0.0 mm
11:55 PM 60.1°F15.6°C 51.4°F10.8°C 73% Calm Calm -- 29.81 in1009.5 mb - 0.00 in0.0 mm 0.00 in0.0 mm